Vitebsk, Vitebsk Vostochny Airport (UMII)

NameVitebsk Vostochny Airport
CityVitebsk
CountryBelarus
ICAOUMII
IATAVTB
Altitude63 m
CoordinatesGoogle Map
Live Air TrafficLiveATC.net
METARUMII 271300Z 26006G09MPS 9999 BKN024CB 02/M00 Q0992 R23/290050 TEMPO 2000 SHSNRA BKN005
2020-02-27 13:00:00 Wind: West-Southwest (260°) 6 m/s - Visibility: 2000 m - Temperature: 2 °C - Dew point: -0 °C - Humidity: 86.8% - Pressure: 0992 hPa

Sorry, no flights used the airport in this database.